Time;durP1;ratioP1;P1;durP2;ratioP2;P2;SDS_P1;SDS_P2;PMS_P1;PMS_P2;Temp;Humidity;BMP_temperature;BMP_pressure;BME280_temperature;BME280_humidity;BME280_pressure;Samples;Min_cycle;Max_cycle;Signal;HPM_P1;HPM_P2
2022/06/24 07:58:15;;;;;;;1.70;1.30;;;26.60;99.90;;;;;;4216621;23;20231;-63
2022/06/24 08:00:42;;;;;;;1.65;1.30;;;26.20;99.90;;;;;;4963824;28;20208;-83
2022/06/24 08:03:09;;;;;;;1.42;1.33;;;25.50;99.90;;;;;;4965362;28;20627;-64
2022/06/24 08:05:36;;;;;;;1.65;1.25;;;25.20;99.90;;;;;;4974093;28;20338;-67
2022/06/24 08:08:03;;;;;;;1.13;0.80;;;24.70;99.90;;;;;;4973954;28;20314;-65
2022/06/24 08:10:30;;;;;;;2.47;0.60;;;23.70;99.90;;;;;;4974435;28;20219;-64
2022/06/24 08:12:57;;;;;;;0.55;0.40;;;22.70;99.90;;;;;;4974628;28;20299;-71
2022/06/24 08:15:25;;;;;;;0.70;0.40;;;22.10;99.90;;;;;;4974043;28;20238;-82
2022/06/24 08:17:52;;;;;;;0.35;0.30;;;21.60;99.90;;;;;;4974179;28;20207;-80
2022/06/24 08:20:19;;;;;;;0.55;0.30;;;21.50;99.90;;;;;;4974383;28;20298;-64
2022/06/24 08:22:45;;;;;;;0.40;0.30;;;21.30;99.90;;;;;;4974409;28;20215;-83
2022/06/24 08:25:12;;;;;;;1.60;0.45;;;21.10;99.90;;;;;;4973909;28;20768;-88
2022/06/24 08:27:39;;;;;;;1.13;0.40;;;20.80;99.90;;;;;;4975190;28;20322;-84
2022/06/24 08:30:07;;;;;;;0.95;0.47;;;20.40;99.90;;;;;;4974857;28;20292;-86
2022/06/24 08:32:35;;;;;;;1.10;0.70;;;20.20;99.90;;;;;;4973604;28;20221;-81
2022/06/24 08:35:02;;;;;;;0.65;0.40;;;19.70;99.90;;;;;;4978048;28;20329;-77
2022/06/24 08:37:29;;;;;;;1.48;0.40;;;19.60;99.90;;;;;;4977157;28;20302;-91
2022/06/24 08:39:57;;;;;;;0.87;0.50;;;19.40;99.90;;;;;;4975600;28;20666;-81
2022/06/24 08:42:28;;;;;;;1.33;0.47;;;19.40;99.90;;;;;;4976532;28;20211;-88
2022/06/24 08:44:58;;;;;;;0.60;0.40;;;19.40;99.90;;;;;;4975076;28;20325;-64
2022/06/24 08:47:25;;;;;;;0.70;0.40;;;19.40;99.90;;;;;;4973877;28;20222;-63
2022/06/24 08:49:53;;;;;;;0.60;0.30;;;19.40;99.90;;;;;;4973811;28;20294;-64
2022/06/24 08:52:21;;;;;;;0.50;0.40;;;19.60;99.90;;;;;;4972356;28;20207;-64
2022/06/24 08:54:53;;;;;;;0.63;0.40;;;19.60;99.90;;;;;;4973261;28;20239;-64
2022/06/24 08:57:19;;;;;;;0.52;0.35;;;19.50;99.90;;;;;;4973251;28;20210;-64
2022/06/24 08:59:46;;;;;;;0.87;0.30;;;19.40;99.90;;;;;;4973435;28;20628;-66
2022/06/24 09:02:18;;;;;;;0.90;0.30;;;19.40;99.90;;;;;;4973602;28;20666;-65
2022/06/24 09:04:46;;;;;;;1.27;0.28;;;19.40;99.90;;;;;;4973688;28;20363;-65
2022/06/24 09:07:25;;;;;;;0.80;0.20;;;19.50;99.90;;;;;;4973518;28;20258;-65
2022/06/24 09:09:59;;;;;;;0.75;0.38;;;19.50;99.90;;;;;;4973021;28;20207;-64
2022/06/24 09:12:30;;;;;;;0.30;0.20;;;19.70;99.90;;;;;;4973601;28;20250;-65
2022/06/24 09:15:03;;;;;;;0.32;0.25;;;19.80;99.90;;;;;;4976252;28;20241;-69
2022/06/24 09:17:30;;;;;;;0.57;0.30;;;19.90;99.90;;;;;;4977137;28;20291;-69
2022/06/24 09:20:05;;;;;;;0.35;0.20;;;20.10;99.90;;;;;;4977140;28;20307;-66
2022/06/24 09:22:36;;;;;;;0.40;0.30;;;20.10;99.90;;;;;;4976917;28;20212;-65
2022/06/24 09:25:04;;;;;;;0.60;0.40;;;20.10;99.90;;;;;;4976581;28;20302;-66
2022/06/24 09:27:31;;;;;;;2.85;0.40;;;20.10;99.90;;;;;;4977201;28;20270;-65
2022/06/24 09:29:58;;;;;;;0.68;0.30;;;20.60;99.90;;;;;;4977050;28;20625;-65
2022/06/24 09:32:25;;;;;;;0.50;0.30;;;20.90;99.90;;;;;;4976810;28;20262;-65
2022/06/24 09:35:03;;;;;;;0.65;0.20;;;21.20;99.90;;;;;;4976361;28;20238;-71
2022/06/24 09:37:40;;;;;;;0.47;0.30;;;21.60;99.90;;;;;;4976553;28;20222;-65
2022/06/24 09:40:20;;;;;;;0.30;0.30;;;21.70;99.90;;;;;;4976608;28;20257;-70
2022/06/24 09:42:54;;;;;;;1.80;0.30;;;22.00;99.90;;;;;;4976830;28;20207;-70
2022/06/24 09:45:22;;;;;;;0.43;0.20;;;22.20;99.90;;;;;;4976267;28;20223;-68
2022/06/24 09:47:49;;;;;;;0.40;0.28;;;22.50;99.90;;;;;;4976345;28;20218;-66
2022/06/24 09:50:16;;;;;;;0.82;0.30;;;23.00;99.90;;;;;;4976147;28;20219;-66
2022/06/24 09:52:45;;;;;;;0.35;0.30;;;23.10;99.90;;;;;;4976406;28;20658;-66
2022/06/24 09:55:12;;;;;;;0.38;0.20;;;23.40;99.90;;;;;;4976265;28;20239;-65
2022/06/24 09:57:39;;;;;;;0.55;0.30;;;23.60;99.90;;;;;;4974966;28;20305;-65
2022/06/24 10:02:53;;;;;;;0.50;0.30;;;24.20;99.90;;;;;;4975928;28;20209;-79
2022/06/24 10:05:21;;;;;;;0.40;0.25;;;24.30;99.90;;;;;;4975611;28;20266;-69
2022/06/24 10:07:49;;;;;;;0.30;0.28;;;24.70;99.90;;;;;;4975250;28;20665;-67
2022/06/24 10:10:18;;;;;;;0.30;0.20;;;24.40;99.90;;;;;;4975550;28;20258;-66
2022/06/24 10:12:50;;;;;;;0.80;0.40;;;24.70;99.90;;;;;;4976199;28;20203;-67
2022/06/24 10:15:18;;;;;;;0.60;0.40;;;25.10;99.90;;;;;;4975618;28;20250;-65
2022/06/24 10:17:47;;;;;;;0.40;0.30;;;24.90;99.90;;;;;;4975690;28;20218;-64
2022/06/24 10:20:15;;;;;;;0.22;0.20;;;24.70;99.90;;;;;;4975947;28;20211;-67
2022/06/24 10:22:44;;;;;;;0.40;0.30;;;25.00;99.90;;;;;;4975690;28;20219;-66
2022/06/24 10:25:17;;;;;;;0.30;0.30;;;25.00;99.90;;;;;;4970972;28;20220;-63
2022/06/24 10:28:07;;;;;;;1.05;0.50;;;24.70;99.90;;;;;;4974560;28;20211;-63
2022/06/24 10:30:55;;;;;;;0.40;0.30;;;24.30;99.90;;;;;;4974095;28;20262;-65
2022/06/24 10:33:24;;;;;;;0.40;0.40;;;24.40;99.90;;;;;;4973741;28;20622;-66
2022/06/24 10:36:03;;;;;;;2.80;0.40;;;24.60;99.90;;;;;;4973662;28;20262;-67
2022/06/24 10:38:36;;;;;;;0.70;0.40;;;24.70;99.90;;;;;;4974468;28;20207;-73
2022/06/24 10:41:06;;;;;;;0.30;0.20;;;24.60;99.90;;;;;;4973838;28;20214;-81
2022/06/24 10:43:34;;;;;;;1.85;0.30;;;24.80;99.90;;;;;;4974301;28;20294;-77
2022/06/24 10:46:20;;;;;;;1.73;0.30;;;24.80;99.90;;;;;;4973097;28;20227;-68
2022/06/24 10:49:02;;;;;;;1.15;0.47;;;24.90;99.90;;;;;;4974468;28;20554;-74
2022/06/24 10:51:32;;;;;;;0.40;0.30;;;25.20;99.90;;;;;;4973695;28;20274;-74
2022/06/24 10:54:15;;;;;;;0.50;0.40;;;24.80;99.90;;;;;;4989036;28;20218;-76
2022/06/24 10:56:48;;;;;;;0.50;0.50;;;24.50;99.90;;;;;;4973567;28;20262;-69
2022/06/24 10:59:18;;;;;;;1.73;0.60;;;24.00;99.90;;;;;;4979018;28;20225;-70
2022/06/24 11:01:46;;;;;;;0.93;0.52;;;24.00;99.90;;;;;;4993284;28;20206;-78
2022/06/24 11:04:16;;;;;;;0.60;0.60;;;24.20;99.90;;;;;;4987632;28;20644;-74
2022/06/24 11:07:09;;;;;;;0.45;0.40;;;24.20;99.90;;;;;;4973226;28;20207;-70
2022/06/24 11:09:36;;;;;;;2.30;0.50;;;24.50;99.90;;;;;;4974708;28;20203;-75
2022/06/24 11:12:05;;;;;;;0.82;0.60;;;24.40;99.90;;;;;;4974439;28;20302;-72
2022/06/24 11:14:32;;;;;;;1.35;0.68;;;24.10;99.90;;;;;;4974821;28;20235;-76
2022/06/24 11:17:08;;;;;;;0.60;0.50;;;24.00;99.90;;;;;;4974709;28;20684;-75
2022/06/24 11:19:40;;;;;;;0.57;0.55;;;23.70;99.90;;;;;;4975015;28;20210;-76
2022/06/24 11:22:07;;;;;;;0.90;0.70;;;23.70;99.90;;;;;;4974930;28;20218;-75
2022/06/24 11:24:37;;;;;;;3.03;0.82;;;23.80;99.90;;;;;;4974648;28;20232;-75
2022/06/24 11:27:06;;;;;;;1.92;0.50;;;24.00;99.90;;;;;;4974707;28;20211;-76
2022/06/24 11:29:56;;;;;;;0.60;0.50;;;24.00;99.90;;;;;;4974521;28;20200;-75
2022/06/24 11:32:23;;;;;;;0.60;0.52;;;24.10;99.90;;;;;;4974634;28;20207;-76
2022/06/24 11:34:50;;;;;;;1.38;0.52;;;24.20;99.90;;;;;;4974331;28;20235;-75
2022/06/24 11:37:22;;;;;;;0.70;0.60;;;24.20;99.90;;;;;;4974397;28;20302;-76
2022/06/24 11:39:53;;;;;;;0.90;0.50;;;24.20;99.90;;;;;;4974721;28;20210;-74
2022/06/24 11:42:22;;;;;;;1.80;0.70;;;24.20;99.90;;;;;;4974444;28;20215;-76
2022/06/24 11:44:51;;;;;;;0.60;0.50;;;24.00;99.90;;;;;;4974224;28;20315;-76
2022/06/24 11:47:29;;;;;;;1.02;0.50;;;23.90;99.90;;;;;;4974133;28;20573;-76
2022/06/24 11:49:56;;;;;;;0.50;0.50;;;23.90;99.90;;;;;;4974190;28;20207;-75
2022/06/24 11:52:23;;;;;;;0.40;0.40;;;24.10;99.90;;;;;;4974251;28;20211;-72
2022/06/24 11:54:49;;;;;;;0.52;0.40;;;24.50;99.90;;;;;;4974162;28;20253;-76
2022/06/24 11:57:16;;;;;;;0.75;0.60;;;24.70;99.90;;;;;;4973746;28;20235;-75
2022/06/24 11:59:45;;;;;;;0.70;0.50;;;25.00;99.90;;;;;;4973774;28;20298;-75
2022/06/24 12:02:14;;;;;;;1.25;0.60;;;25.20;99.90;;;;;;4974153;28;20281;-64
2022/06/24 12:04:41;;;;;;;0.50;0.40;;;25.10;99.90;;;;;;4974416;28;20278;-75
2022/06/24 12:07:09;;;;;;;0.77;0.50;;;25.20;99.90;;;;;;4974406;28;20242;-72
2022/06/24 12:09:39;;;;;;;0.68;0.40;;;25.40;99.90;;;;;;4974237;28;20258;-75
2022/06/24 12:12:10;;;;;;;0.90;0.52;;;25.60;99.90;;;;;;4974050;28;20215;-73
2022/06/24 12:14:37;;;;;;;0.40;0.40;;;25.50;99.90;;;;;;4974133;28;20250;-74
2022/06/24 12:17:07;;;;;;;1.05;0.40;;;25.30;99.90;;;;;;4974334;28;20213;-72
2022/06/24 12:19:39;;;;;;;0.77;0.50;;;25.10;99.90;;;;;;4974324;28;20294;-73
2022/06/24 12:22:07;;;;;;;0.75;0.60;;;25.10;99.90;;;;;;4974439;28;20236;-75
2022/06/24 12:24:35;;;;;;;2.67;0.68;;;25.20;99.90;;;;;;4974216;28;20233;-71
2022/06/24 12:27:04;;;;;;;0.88;0.60;;;25.20;99.90;;;;;;4974432;28;20218;-65
2022/06/24 12:29:32;;;;;;;1.15;0.60;;;25.20;99.90;;;;;;4974173;28;20299;-76
2022/06/24 12:32:00;;;;;;;1.25;0.63;;;25.20;99.90;;;;;;4974270;28;20218;-75
2022/06/24 12:34:31;;;;;;;0.50;0.40;;;25.50;99.90;;;;;;4974121;28;20233;-72
2022/06/24 12:36:59;;;;;;;3.58;0.80;;;25.50;99.90;;;;;;4973913;28;20231;-72
2022/06/24 12:39:32;;;;;;;7.07;0.80;;;25.30;99.90;;;;;;4974215;28;20241;-74
2022/06/24 12:42:00;;;;;;;0.70;0.60;;;25.10;99.90;;;;;;4974114;28;20215;-74
2022/06/24 12:44:30;;;;;;;2.15;0.70;;;25.20;99.90;;;;;;4973892;28;20254;-75
2022/06/24 12:52:38;;;;;;;0.73;0.60;;;26.10;99.90;;;;;;4977811;28;20214;-74
2022/06/24 12:55:08;;;;;;;0.82;0.73;;;26.10;99.90;;;;;;4977503;28;20225;-62
2022/06/24 12:57:36;;;;;;;1.25;0.70;;;25.90;99.90;;;;;;4977502;28;20221;-64
2022/06/24 13:00:07;;;;;;;0.95;0.80;;;25.80;99.90;;;;;;4977550;28;20557;-63
2022/06/24 13:02:34;;;;;;;2.10;1.00;;;25.80;99.90;;;;;;4973392;28;20428;-66
2022/06/24 13:05:02;;;;;;;0.82;0.70;;;25.90;99.90;;;;;;4976142;28;20253;-66
2022/06/24 13:07:29;;;;;;;0.80;0.60;;;26.10;99.90;;;;;;4976278;28;20648;-63
2022/06/24 13:09:56;;;;;;;0.93;0.82;;;26.40;99.90;;;;;;4975801;28;20203;-73
2022/06/24 13:12:23;;;;;;;0.70;0.70;;;26.70;99.90;;;;;;4976066;28;20211;-71
2022/06/24 13:14:50;;;;;;;0.90;0.80;;;26.60;99.90;;;;;;4976125;28;20318;-73
2022/06/24 13:17:17;;;;;;;0.70;0.63;;;26.80;99.90;;;;;;4970797;28;20238;-80
2022/06/24 13:19:44;;;;;;;0.90;0.73;;;26.70;99.90;;;;;;4974925;28;20207;-73
2022/06/24 13:22:12;;;;;;;2.25;0.70;;;26.90;99.90;;;;;;4975527;28;20211;-78
2022/06/24 13:24:39;;;;;;;1.25;0.73;;;27.00;99.90;;;;;;4974612;28;20314;-75
2022/06/24 13:27:08;;;;;;;0.75;0.60;;;27.30;99.90;;;;;;4975303;28;20211;-68
2022/06/24 13:29:35;;;;;;;2.25;0.70;;;27.40;99.90;;;;;;4975421;28;20293;-64
2022/06/24 13:32:02;;;;;;;1.13;0.65;;;27.40;99.90;;;;;;4974474;28;20566;-66
2022/06/24 13:34:28;;;;;;;0.98;0.70;;;27.40;99.90;;;;;;4974780;28;20638;-64
2022/06/24 13:36:55;;;;;;;0.60;0.60;;;27.10;99.90;;;;;;4974910;28;20330;-63
2022/06/24 13:39:23;;;;;;;2.30;0.60;;;27.20;99.90;;;;;;4974793;28;20211;-65
2022/06/24 13:41:50;;;;;;;2.20;0.60;;;27.30;99.90;;;;;;4975193;28;20210;-65
2022/06/24 13:44:18;;;;;;;1.73;0.70;;;27.40;99.90;;;;;;4974842;28;20207;-71
2022/06/24 13:46:45;;;;;;;0.50;0.50;;;27.70;99.90;;;;;;4974307;28;20696;-65
2022/06/24 13:49:12;;;;;;;0.50;0.40;;;27.80;99.90;;;;;;4975301;28;20207;-77
2022/06/24 13:51:39;;;;;;;2.42;0.70;;;27.80;99.90;;;;;;4975197;28;20208;-68
2022/06/24 13:54:06;;;;;;;0.73;0.60;;;27.70;99.90;;;;;;4974693;28;20536;-65
2022/06/24 13:56:35;;;;;;;1.08;0.60;;;27.80;99.90;;;;;;4974894;28;20302;-66
2022/06/24 13:59:03;;;;;;;0.60;0.60;;;27.50;99.90;;;;;;4974881;28;20215;-65
2022/06/24 14:01:30;;;;;;;0.60;0.40;;;27.30;99.90;;;;;;4972724;28;20709;-68
2022/06/24 14:03:57;;;;;;;1.10;0.50;;;27.20;99.90;;;;;;4973943;28;20547;-74
2022/06/24 14:06:24;;;;;;;0.45;0.43;;;26.90;99.90;;;;;;4974525;28;20227;-70
2022/06/24 14:08:51;;;;;;;3.17;0.52;;;26.80;99.90;;;;;;4974784;28;20657;-65
2022/06/24 14:11:18;;;;;;;1.00;0.50;;;26.80;99.90;;;;;;4975113;28;20207;-65
2022/06/24 14:13:46;;;;;;;0.43;0.40;;;26.80;99.90;;;;;;4974405;28;20210;-67
2022/06/24 14:16:13;;;;;;;0.60;0.50;;;26.80;99.90;;;;;;4974019;28;20274;-67
2022/06/24 14:18:40;;;;;;;0.85;0.50;;;26.80;99.90;;;;;;4974680;28;20658;-68
2022/06/24 14:21:07;;;;;;;1.13;0.52;;;26.80;99.90;;;;;;4974656;28;20222;-68
2022/06/24 14:26:20;;;;;;;0.60;0.40;;;26.60;99.90;;;;;;4973987;28;20241;-66
2022/06/24 14:28:48;;;;;;;0.60;0.40;;;26.50;99.90;;;;;;4974285;28;20570;-70
2022/06/24 14:31:15;;;;;;;0.50;0.45;;;26.60;99.90;;;;;;4976168;28;20574;-63
2022/06/24 14:33:42;;;;;;;0.60;0.40;;;26.30;99.90;;;;;;4976641;28;20211;-63
2022/06/24 14:36:09;;;;;;;0.57;0.43;;;26.20;99.90;;;;;;4976315;28;20245;-64
2022/06/24 14:41:20;;;;;;;1.02;0.47;;;25.90;99.90;;;;;;4976149;28;20207;-67
2022/06/24 14:43:48;;;;;;;0.50;0.40;;;25.80;99.90;;;;;;4975892;28;20685;-70
2022/06/24 14:46:15;;;;;;;0.50;0.40;;;25.50;99.90;;;;;;4975906;28;20235;-64
2022/06/24 14:48:42;;;;;;;0.50;0.30;;;25.40;99.90;;;;;;4976337;28;20575;-64
2022/06/24 14:51:08;;;;;;;0.55;0.50;;;25.10;99.90;;;;;;4976084;28;20761;-76
2022/06/24 14:53:35;;;;;;;1.83;0.50;;;24.90;99.90;;;;;;4975805;28;20211;-64
2022/06/24 14:56:02;;;;;;;0.95;0.40;;;24.60;99.90;;;;;;4975664;28;20579;-64
2022/06/24 14:58:29;;;;;;;0.70;0.40;;;24.40;99.90;;;;;;4975574;28;20301;-63
2022/06/24 15:00:57;;;;;;;0.30;0.20;;;24.50;99.90;;;;;;4975564;28;20234;-64
2022/06/24 15:03:24;;;;;;;0.45;0.40;;;24.40;99.90;;;;;;4976001;28;20211;-64
2022/06/24 15:05:51;;;;;;;0.50;0.30;;;24.60;99.90;;;;;;4975483;28;20321;-65
2022/06/24 15:08:18;;;;;;;0.30;0.30;;;24.70;99.90;;;;;;4975689;28;20211;-64
2022/06/24 15:10:45;;;;;;;1.00;0.20;;;24.80;99.90;;;;;;4975491;28;20700;-67
2022/06/24 15:13:12;;;;;;;2.83;0.50;;;24.90;99.90;;;;;;4975290;28;20584;-63
2022/06/24 15:15:39;;;;;;;0.60;0.30;;;24.90;99.90;;;;;;4975577;28;20227;-63
2022/06/24 15:18:08;;;;;;;0.60;0.40;;;25.10;99.90;;;;;;4975399;28;20569;-63
2022/06/24 15:20:34;;;;;;;2.10;0.40;;;25.30;99.90;;;;;;4975450;28;20223;-63
2022/06/24 15:23:01;;;;;;;0.95;0.60;;;25.50;99.90;;;;;;4975560;28;20217;-63
2022/06/24 15:25:28;;;;;;;0.75;0.50;;;25.50;99.90;;;;;;4975254;28;20231;-64
2022/06/24 15:27:55;;;;;;;0.70;0.50;;;25.40;99.90;;;;;;4977612;28;20206;-65
2022/06/24 15:30:22;;;;;;;0.82;0.50;;;25.40;99.90;;;;;;4992960;28;20209;-63
2022/06/24 15:32:50;;;;;;;0.82;0.52;;;25.40;99.90;;;;;;4990745;28;20217;-66
2022/06/24 15:35:19;;;;;;;0.75;0.40;;;25.50;99.90;;;;;;4992842;28;20265;-64
2022/06/24 15:37:45;;;;;;;0.68;0.30;;;25.60;99.90;;;;;;4986218;28;20318;-65
2022/06/24 15:40:13;;;;;;;0.30;0.30;;;25.50;99.90;;;;;;4973724;28;20633;-66
2022/06/24 15:42:40;;;;;;;1.10;0.22;;;25.30;99.90;;;;;;4973166;28;20682;-64
2022/06/24 15:45:08;;;;;;;0.40;0.30;;;25.20;99.90;;;;;;4973623;28;20314;-65
2022/06/24 15:47:35;;;;;;;0.50;0.25;;;24.70;99.90;;;;;;4973741;28;20210;-70
2022/06/24 15:50:01;;;;;;;0.40;0.30;;;24.70;99.90;;;;;;4973512;28;20211;-67
2022/06/24 15:52:30;;;;;;;1.20;0.40;;;24.70;99.90;;;;;;4973458;28;20215;-70
2022/06/24 15:54:57;;;;;;;0.70;0.40;;;24.60;99.90;;;;;;4973134;28;20227;-69
2022/06/24 15:57:24;;;;;;;0.30;0.30;;;24.50;99.90;;;;;;4972296;28;20697;-68
2022/06/24 15:59:51;;;;;;;0.40;0.30;;;24.50;99.90;;;;;;4973434;28;20565;-66
2022/06/24 16:02:18;;;;;;;0.45;0.35;;;24.40;99.90;;;;;;4973564;28;20217;-68
2022/06/24 16:04:45;;;;;;;0.45;0.30;;;24.40;99.90;;;;;;4972671;28;20230;-66
2022/06/24 16:07:12;;;;;;;0.68;0.38;;;24.30;99.90;;;;;;4972750;28;20211;-65
2022/06/24 16:09:40;;;;;;;1.95;0.43;;;24.30;99.90;;;;;;4973534;28;20207;-74
2022/06/24 16:14:52;;;;;;;0.82;0.60;;;24.00;99.90;;;;;;4953776;28;20238;-64
2022/06/24 16:17:19;;;;;;;0.60;0.52;;;23.80;99.90;;;;;;4956561;28;20234;-68
2022/06/24 16:19:46;;;;;;;0.98;0.70;;;23.70;99.90;;;;;;4972382;28;20301;-65
2022/06/24 16:22:13;;;;;;;0.70;0.57;;;23.60;99.90;;;;;;4973056;28;20238;-65
2022/06/24 16:30:08;;;;;;;0.60;0.40;;;23.30;99.90;;;;;;4972799;28;20339;-67
2022/06/24 16:32:34;;;;;;;2.70;0.60;;;23.20;99.90;;;;;;4973211;28;20222;-67
2022/06/24 16:35:02;;;;;;;1.00;0.60;;;23.20;99.90;;;;;;4972433;28;20323;-69
2022/06/24 16:37:29;;;;;;;0.60;0.60;;;23.20;99.90;;;;;;4972765;28;20235;-67
2022/06/24 16:39:57;;;;;;;0.70;0.52;;;23.20;99.90;;;;;;4973271;28;20207;-67
2022/06/24 16:42:25;;;;;;;0.82;0.50;;;23.20;99.90;;;;;;4972683;28;20298;-64
2022/06/24 16:44:51;;;;;;;1.13;0.88;;;23.10;99.90;;;;;;4981241;28;20705;-64
2022/06/24 16:47:18;;;;;;;0.55;0.50;;;23.30;99.90;;;;;;4992533;28;20301;-65
2022/06/24 16:49:46;;;;;;;0.55;0.47;;;23.40;99.90;;;;;;4992391;28;20301;-63
2022/06/24 16:52:13;;;;;;;0.50;0.40;;;23.30;99.90;;;;;;4993635;28;20565;-67
2022/06/24 16:54:40;;;;;;;0.60;0.45;;;23.50;99.90;;;;;;4993465;28;20739;-66
2022/06/24 16:57:08;;;;;;;0.80;0.52;;;23.60;99.90;;;;;;4993392;28;20321;-64
2022/06/24 16:59:35;;;;;;;1.58;0.60;;;23.70;99.90;;;;;;4993324;28;20295;-63
2022/06/24 17:02:02;;;;;;;1.45;0.70;;;23.90;99.90;;;;;;4993714;28;20220;-64
2022/06/24 17:04:28;;;;;;;0.50;0.47;;;23.80;99.90;;;;;;4993429;28;20228;-63
2022/06/24 17:06:56;;;;;;;1.25;0.60;;;23.90;99.90;;;;;;4993552;28;20736;-63
2022/06/24 17:09:23;;;;;;;0.70;0.50;;;24.00;99.90;;;;;;4993430;28;20684;-64
2022/06/24 17:11:50;;;;;;;1.77;0.50;;;24.20;99.90;;;;;;4993468;28;20242;-64
2022/06/24 17:14:18;;;;;;;1.45;0.60;;;24.50;99.90;;;;;;4993335;28;20211;-64
2022/06/24 17:16:45;;;;;;;1.13;0.60;;;24.70;99.90;;;;;;4993316;28;20222;-63
2022/06/24 17:19:12;;;;;;;0.50;0.50;;;24.60;99.90;;;;;;4993535;28;20289;-64
2022/06/24 17:21:39;;;;;;;1.65;0.50;;;24.50;99.90;;;;;;4993438;28;20568;-64
2022/06/24 17:24:06;;;;;;;1.20;0.60;;;24.50;99.90;;;;;;4993611;28;20209;-63
2022/06/24 17:26:32;;;;;;;0.57;0.50;;;24.50;99.90;;;;;;4993746;28;20230;-68
2022/06/24 17:28:59;;;;;;;0.55;0.40;;;24.40;99.90;;;;;;4994124;28;20206;-64
2022/06/24 17:31:27;;;;;;;0.35;0.30;;;24.40;99.90;;;;;;4994010;28;20745;-73
2022/06/24 17:33:54;;;;;;;0.68;0.60;;;24.60;99.90;;;;;;4993885;28;20724;-70
2022/06/24 17:36:21;;;;;;;2.60;0.40;;;24.70;99.90;;;;;;4996969;28;20313;-74
2022/06/24 17:38:49;;;;;;;0.40;0.40;;;24.70;99.90;;;;;;4997508;28;20731;-79
2022/06/24 17:41:16;;;;;;;0.50;0.40;;;24.60;99.90;;;;;;4998074;28;20210;-83
2022/06/24 17:43:42;;;;;;;0.77;0.57;;;24.80;99.90;;;;;;4997749;28;20212;-86
2022/06/24 17:46:09;;;;;;;0.60;0.57;;;24.80;99.90;;;;;;4997366;28;20237;-86
2022/06/24 17:48:37;;;;;;;0.82;0.43;;;24.90;99.90;;;;;;4997288;28;20211;-83
2022/06/24 17:51:04;;;;;;;0.50;0.30;;;24.70;99.90;;;;;;4997204;28;20301;-82
2022/06/24 17:53:31;;;;;;;0.47;0.43;;;24.60;99.90;;;;;;4997143;28;20640;-84
2022/06/24 17:55:58;;;;;;;0.82;0.60;;;24.70;99.90;;;;;;4997592;28;20237;-79
2022/06/24 17:58:25;;;;;;;0.77;0.50;;;24.50;99.90;;;;;;4996691;28;20242;-74
2022/06/24 18:00:51;;;;;;;1.58;0.40;;;24.70;99.90;;;;;;4996638;28;20206;-63
2022/06/24 18:03:18;;;;;;;0.73;0.43;;;24.60;99.90;;;;;;4996761;28;20562;-81
2022/06/24 18:05:46;;;;;;;1.00;0.40;;;24.40;99.90;;;;;;4996031;28;20230;-65
2022/06/24 18:08:14;;;;;;;0.88;0.40;;;24.40;99.90;;;;;;4996241;28;20220;-64
2022/06/24 18:10:41;;;;;;;0.60;0.40;;;24.30;99.90;;;;;;4996618;28;20217;-63
2022/06/24 18:13:08;;;;;;;0.40;0.40;;;24.10;99.90;;;;;;4996544;28;20207;-69
2022/06/24 18:15:35;;;;;;;0.30;0.30;;;24.00;99.90;;;;;;4995841;28;20574;-70
2022/06/24 18:18:02;;;;;;;0.70;0.40;;;24.00;99.90;;;;;;4995946;28;20238;-67
2022/06/24 18:20:30;;;;;;;0.73;0.38;;;24.00;99.90;;;;;;4996110;28;20550;-80
2022/06/24 18:22:58;;;;;;;0.88;0.70;;;23.90;99.90;;;;;;4996072;28;20214;-62
2022/06/24 18:25:26;;;;;;;0.57;0.43;;;23.70;99.90;;;;;;4996092;28;20321;-71
2022/06/24 18:27:53;;;;;;;0.70;0.40;;;23.70;99.90;;;;;;4996018;28;20214;-80
2022/06/24 18:30:19;;;;;;;0.50;0.40;;;23.60;99.90;;;;;;4995917;28;20655;-82
2022/06/24 18:32:46;;;;;;;1.08;0.47;;;23.50;99.90;;;;;;4996083;28;20297;-80
2022/06/24 18:35:13;;;;;;;2.35;0.55;;;23.40;99.90;;;;;;4996059;28;20736;-84
2022/06/24 18:37:40;;;;;;;1.23;0.45;;;23.30;99.90;;;;;;4995865;28;20325;-81
2022/06/24 18:40:11;;;;;;;0.88;0.43;;;23.10;99.90;;;;;;4995808;28;20213;-74
2022/06/24 18:42:38;;;;;;;0.70;0.40;;;23.10;99.90;;;;;;4996070;28;20211;-81
2022/06/24 18:45:05;;;;;;;1.42;0.50;;;22.90;99.90;;;;;;4995572;28;20226;-79
2022/06/24 18:47:32;;;;;;;0.68;0.50;;;22.90;99.90;;;;;;4994778;28;20557;-77
2022/06/24 18:49:59;;;;;;;1.48;0.65;;;22.90;99.90;;;;;;4975794;28;20215;-66
